Time;durP1;ratioP1;P1;durP2;ratioP2;P2;SDS_P1;SDS_P2;PMS_P1;PMS_P2;Temp;Humidity;BMP_temperature;BMP_pressure;BME280_temperature;BME280_humidity;BME280_pressure;Samples;Min_cycle;Max_cycle;Signal;HPM_P1;HPM_P2
2023/02/22 00:01:18;;;;;;;15.65;8.45;;;;;;;;;;4983985;28;20034;-52
2023/02/22 00:03:47;;;;;;;15.77;8.52;;;;;;;;;;4986391;28;20034;-55
2023/02/22 00:06:14;;;;;;;15.45;7.57;;;;;;;;;;4986870;28;20242;-50
2023/02/22 00:08:40;;;;;;;14.88;8.05;;;;;;;;;;4985993;28;20058;-59
2023/02/22 00:11:09;;;;;;;13.52;7.63;;;;;;;;;;4983447;28;20108;-56
2023/02/22 00:13:35;;;;;;;18.05;8.95;;;;;;;;;;4984766;28;20407;-57
2023/02/22 00:16:00;;;;;;;19.42;8.93;;;;;;;;;;4982844;28;20030;-48
2023/02/22 00:18:27;;;;;;;15.05;8.30;;;;;;;;;;4983102;28;20068;-58
2023/02/22 00:20:53;;;;;;;15.80;8.63;;;;;;;;;;4983506;28;20041;-51
2023/02/22 00:23:20;;;;;;;16.55;9.02;;;;;;;;;;4981589;28;20296;-57
2023/02/22 00:25:46;;;;;;;16.80;8.68;;;;;;;;;;4982984;28;20134;-55
2023/02/22 00:28:15;;;;;;;20.27;9.45;;;;;;;;;;4983851;28;20031;-56
2023/02/22 00:30:43;;;;;;;19.35;8.25;;;;;;;;;;4982953;28;20042;-55
2023/02/22 00:33:10;;;;;;;15.50;7.82;;;;;;;;;;4982554;28;20061;-54
2023/02/22 00:35:35;;;;;;;21.08;8.45;;;;;;;;;;4980978;28;20480;-54
2023/02/22 00:38:01;;;;;;;35.78;11.85;;;;;;;;;;4997519;28;20068;-55
2023/02/22 00:40:29;;;;;;;25.10;10.13;;;;;;;;;;4985331;28;20045;-55
2023/02/22 00:42:55;;;;;;;18.30;10.07;;;;;;;;;;4981772;28;20092;-59
2023/02/22 00:45:22;;;;;;;19.58;9.65;;;;;;;;;;4979192;28;20026;-54
2023/02/22 00:47:48;;;;;;;16.30;7.95;;;;;;;;;;4983965;28;20030;-54
2023/02/22 00:50:14;;;;;;;16.00;9.05;;;;;;;;;;4999661;28;20372;-55
2023/02/22 00:52:40;;;;;;;19.73;9.07;;;;;;;;;;4982898;28;20049;-51
2023/02/22 00:55:06;;;;;;;19.40;11.68;;;;;;;;;;4982565;28;20395;-50
2023/02/22 00:57:35;;;;;;;24.95;11.57;;;;;;;;;;4998097;28;20329;-50
2023/02/22 01:00:10;;;;;;;20.33;11.20;;;;;;;;;;4983863;28;20034;-52
2023/02/22 01:02:38;;;;;;;21.98;11.32;;;;;;;;;;4987094;28;20098;-54
2023/02/22 01:05:04;;;;;;;23.42;11.10;;;;;;;;;;4982966;28;20121;-53
2023/02/22 01:07:30;;;;;;;17.77;10.20;;;;;;;;;;4983944;28;20058;-59
2023/02/22 01:09:55;;;;;;;17.67;9.30;;;;;;;;;;4982551;28;20201;-57
2023/02/22 01:12:21;;;;;;;23.15;10.00;;;;;;;;;;4983521;28;20123;-47
2023/02/22 01:14:47;;;;;;;23.10;10.05;;;;;;;;;;4982329;28;20662;-52
2023/02/22 01:17:12;;;;;;;26.02;11.05;;;;;;;;;;4984018;28;20031;-50
2023/02/22 01:19:41;;;;;;;21.35;10.75;;;;;;;;;;4983951;28;20037;-56
2023/02/22 01:22:07;;;;;;;21.58;11.93;;;;;;;;;;4997509;28;20613;-53
2023/02/22 01:24:32;;;;;;;19.20;11.20;;;;;;;;;;4985036;28;20612;-53
2023/02/22 01:26:57;;;;;;;21.88;11.50;;;;;;;;;;4983361;28;21615;-57
2023/02/22 01:29:23;;;;;;;16.67;10.25;;;;;;;;;;4984811;28;20027;-48
2023/02/22 01:31:53;;;;;;;19.48;9.48;;;;;;;;;;4984389;28;20438;-54
2023/02/22 01:34:19;;;;;;;22.08;10.15;;;;;;;;;;4983794;28;20440;-51
2023/02/22 01:36:47;;;;;;;20.42;10.48;;;;;;;;;;5002256;28;20471;-57
2023/02/22 01:39:12;;;;;;;19.70;10.10;;;;;;;;;;4988073;28;20069;-49
2023/02/22 01:41:38;;;;;;;21.60;11.00;;;;;;;;;;4986617;28;20058;-57
2023/02/22 01:44:17;;;;;;;22.15;9.82;;;;;;;;;;4985432;28;20033;-59
2023/02/22 01:46:42;;;;;;;28.48;10.38;;;;;;;;;;4983820;28;20066;-52
2023/02/22 01:49:09;;;;;;;27.73;9.93;;;;;;;;;;4983518;28;20149;-57
2023/02/22 01:51:40;;;;;;;23.85;10.20;;;;;;;;;;4985291;28;20026;-53
2023/02/22 01:54:08;;;;;;;28.15;10.35;;;;;;;;;;4987143;28;20030;-51
2023/02/22 01:56:35;;;;;;;24.05;10.55;;;;;;;;;;4987280;28;20080;-52
2023/02/22 01:59:00;;;;;;;;;;;;;;;;;;4987660;28;20812;-51
2023/02/22 02:01:27;;;;;;;21.10;9.73;;;;;;;;;;4989230;28;20012;-53
2023/02/22 02:03:58;;;;;;;20.67;9.67;;;;;;;;;;4996822;28;20038;-56
2023/02/22 02:06:25;;;;;;;20.35;9.57;;;;;;;;;;4986103;28;20179;-51
2023/02/22 02:09:09;;;;;;;21.25;9.68;;;;;;;;;;4985925;28;20494;-53
2023/02/22 02:11:35;;;;;;;17.73;9.93;;;;;;;;;;4983742;28;20034;-55
2023/02/22 02:14:00;;;;;;;17.83;10.15;;;;;;;;;;4982905;28;20038;-51
2023/02/22 02:16:34;;;;;;;19.65;9.23;;;;;;;;;;4971557;28;20387;-52
2023/02/22 02:18:59;;;;;;;13.02;7.95;;;;;;;;;;4997402;28;20031;-56
2023/02/22 02:21:48;;;;;;;13.30;8.13;;;;;;;;;;4986583;28;20026;-55
2023/02/22 02:24:38;;;;;;;17.25;8.85;;;;;;;;;;4985727;28;20699;-57
2023/02/22 02:27:09;;;;;;;19.88;10.38;;;;;;;;;;4986371;28;20595;-51
2023/02/22 02:29:53;;;;;;;18.92;9.65;;;;;;;;;;4984153;28;20053;-53
2023/02/22 02:32:22;;;;;;;16.85;8.98;;;;;;;;;;4985603;28;20091;-59
2023/02/22 02:34:53;;;;;;;22.65;8.63;;;;;;;;;;4984788;28;20042;-59
2023/02/22 02:37:21;;;;;;;15.00;8.10;;;;;;;;;;4984886;28;20042;-57
2023/02/22 02:39:59;;;;;;;15.75;7.57;;;;;;;;;;4982536;28;20068;-53
2023/02/22 02:42:29;;;;;;;14.30;8.07;;;;;;;;;;4984781;28;20037;-52
2023/02/22 02:44:56;;;;;;;13.07;7.82;;;;;;;;;;4985638;28;20041;-53
2023/02/22 02:47:25;;;;;;;12.93;7.05;;;;;;;;;;4977612;28;20153;-56
2023/02/22 02:49:53;;;;;;;11.50;7.05;;;;;;;;;;5000601;28;20030;-50
2023/02/22 02:52:20;;;;;;;14.02;8.07;;;;;;;;;;4967338;28;20038;-52
2023/02/22 02:54:47;;;;;;;14.15;7.72;;;;;;;;;;4983598;28;20043;-56
2023/02/22 02:57:12;;;;;;;19.50;9.90;;;;;;;;;;4986874;28;20439;-54
2023/02/22 02:59:38;;;;;;;14.35;8.90;;;;;;;;;;4995596;28;20022;-56
2023/02/22 03:02:03;;;;;;;17.08;9.07;;;;;;;;;;4986982;28;20030;-50
2023/02/22 03:04:28;;;;;;;18.70;9.48;;;;;;;;;;4984002;28;20035;-56
2023/02/22 03:07:05;;;;;;;23.52;10.25;;;;;;;;;;4986616;28;20034;-51
2023/02/22 03:09:53;;;;;;;17.50;9.68;;;;;;;;;;4983817;28;20030;-54
2023/02/22 03:12:31;;;;;;;17.73;9.80;;;;;;;;;;4982872;28;20464;-53
2023/02/22 03:15:04;;;;;;;17.33;8.68;;;;;;;;;;4985173;28;20551;-57
2023/02/22 03:17:44;;;;;;;16.58;8.65;;;;;;;;;;4983970;28;20472;-50
2023/02/22 03:20:30;;;;;;;15.95;8.60;;;;;;;;;;4983901;28;20037;-56
2023/02/22 03:23:03;;;;;;;15.00;8.35;;;;;;;;;;4969564;28;20034;-53
2023/02/22 03:25:34;;;;;;;13.02;7.95;;;;;;;;;;4993466;28;20473;-54
2023/02/22 03:28:03;;;;;;;13.60;7.43;;;;;;;;;;4985473;28;20039;-48
2023/02/22 03:30:31;;;;;;;15.07;6.82;;;;;;;;;;4976833;28;20484;-59
2023/02/22 03:33:07;;;;;;;12.63;7.68;;;;;;;;;;4980332;28;20038;-54
2023/02/22 03:35:40;;;;;;;15.77;8.50;;;;;;;;;;4979114;28;20411;-51
2023/02/22 03:38:07;;;;;;;18.40;8.40;;;;;;;;;;4984512;28;20475;-49
2023/02/22 03:40:33;;;;;;;;;;;;;;;;;;4983650;28;20038;-52
2023/02/22 03:43:01;;;;;;;10.40;6.68;;;;;;;;;;4982709;28;19968;-55
2023/02/22 03:45:27;;;;;;;12.45;7.20;;;;;;;;;;5001325;28;20524;-49
2023/02/22 03:47:59;;;;;;;12.65;7.65;;;;;;;;;;4999842;28;20685;-53
2023/02/22 03:50:28;;;;;;;14.48;6.22;;;;;;;;;;4983834;28;20124;-57
2023/02/22 03:52:54;;;;;;;11.88;7.38;;;;;;;;;;4983937;28;20134;-58
2023/02/22 03:55:24;;;;;;;16.27;7.75;;;;;;;;;;4979109;28;20031;-53
2023/02/22 03:57:51;;;;;;;12.88;7.43;;;;;;;;;;4983002;28;20036;-59
2023/02/22 04:00:19;;;;;;;13.00;6.95;;;;;;;;;;4992615;28;20069;-47
2023/02/22 04:02:44;;;;;;;16.77;7.35;;;;;;;;;;4985012;28;20463;-54
2023/02/22 04:05:16;;;;;;;13.43;7.40;;;;;;;;;;4992167;28;20541;-54
2023/02/22 04:07:41;;;;;;;15.60;7.18;;;;;;;;;;4984608;28;20035;-54
2023/02/22 04:10:09;;;;;;;15.07;8.10;;;;;;;;;;4988390;28;20366;-54
2023/02/22 04:12:36;;;;;;;;;;;;;;;;;;4983454;28;20117;-50
2023/02/22 04:15:04;;;;;;;9.95;6.13;;;;;;;;;;4982107;28;19929;-52
2023/02/22 04:17:30;;;;;;;12.10;7.40;;;;;;;;;;4981421;28;20522;-49
2023/02/22 04:19:59;;;;;;;13.23;7.57;;;;;;;;;;4987472;28;20031;-51
2023/02/22 04:22:32;;;;;;;12.90;6.85;;;;;;;;;;4981253;28;20138;-53
2023/02/22 04:24:57;;;;;;;17.30;7.30;;;;;;;;;;4984980;28;20711;-52
2023/02/22 04:27:23;;;;;;;12.48;7.07;;;;;;;;;;4980551;28;20467;-52
2023/02/22 04:29:48;;;;;;;15.02;7.40;;;;;;;;;;4967556;28;20554;-54
2023/02/22 04:32:14;;;;;;;18.25;7.28;;;;;;;;;;4984874;28;20578;-57
2023/02/22 04:34:40;;;;;;;11.18;7.18;;;;;;;;;;4980715;28;20046;-53
2023/02/22 04:37:09;;;;;;;11.63;6.95;;;;;;;;;;4977834;28;20404;-53
2023/02/22 04:39:34;;;;;;;15.52;7.55;;;;;;;;;;4982644;28;20787;-57
2023/02/22 04:42:03;;;;;;;13.90;8.25;;;;;;;;;;4982274;28;20038;-54
2023/02/22 04:44:32;;;;;;;14.57;8.00;;;;;;;;;;4982993;28;20133;-54
2023/02/22 04:46:57;;;;;;;13.88;7.57;;;;;;;;;;4980750;28;20062;-54
2023/02/22 04:49:23;;;;;;;14.88;7.88;;;;;;;;;;4981308;28;20114;-52
2023/02/22 04:51:50;;;;;;;11.88;7.43;;;;;;;;;;4981589;28;20061;-54
2023/02/22 04:54:20;;;;;;;19.02;8.30;;;;;;;;;;4982245;28;20064;-54
2023/02/22 04:56:46;;;;;;;15.60;7.45;;;;;;;;;;4987009;28;20034;-57
2023/02/22 04:59:11;;;;;;;14.60;7.80;;;;;;;;;;4983612;28;20045;-52
2023/02/22 05:01:40;;;;;;;14.15;8.25;;;;;;;;;;4980837;28;20045;-58
2023/02/22 05:04:08;;;;;;;13.80;6.88;;;;;;;;;;4982502;28;20096;-53
2023/02/22 05:06:34;;;;;;;14.80;6.93;;;;;;;;;;4982549;28;20041;-55
2023/02/22 05:08:59;;;;;;;12.20;7.13;;;;;;;;;;4980531;28;20039;-56
2023/02/22 05:11:24;;;;;;;15.50;7.07;;;;;;;;;;4981894;28;20371;-56
2023/02/22 05:13:51;;;;;;;12.13;7.22;;;;;;;;;;4982614;28;20059;-55
2023/02/22 05:16:16;;;;;;;11.43;6.40;;;;;;;;;;4981897;28;20103;-52
2023/02/22 05:18:41;;;;;;;12.55;6.68;;;;;;;;;;4985016;28;20117;-54
2023/02/22 05:21:07;;;;;;;17.23;6.82;;;;;;;;;;4982360;28;20030;-57
2023/02/22 05:23:32;;;;;;;11.80;6.57;;;;;;;;;;4980867;28;20034;-58
2023/02/22 05:25:58;;;;;;;14.02;6.65;;;;;;;;;;4980412;28;20042;-57
2023/02/22 05:28:23;;;;;;;12.10;6.43;;;;;;;;;;4983097;28;20120;-55
2023/02/22 05:30:48;;;;;;;15.40;8.13;;;;;;;;;;4983377;28;20036;-52
2023/02/22 05:33:17;;;;;;;22.55;9.18;;;;;;;;;;4982937;28;20030;-51
2023/02/22 05:35:42;;;;;;;17.52;8.65;;;;;;;;;;4981639;28;20030;-54
2023/02/22 05:38:09;;;;;;;18.23;8.80;;;;;;;;;;4980456;28;20023;-57
2023/02/22 05:40:34;;;;;;;14.23;8.82;;;;;;;;;;4981192;28;20041;-60
2023/02/22 05:43:01;;;;;;;15.32;8.18;;;;;;;;;;4979839;28;20034;-54
2023/02/22 05:45:26;;;;;;;13.00;8.07;;;;;;;;;;4982258;28;20070;-52
2023/02/22 05:47:52;;;;;;;15.82;8.48;;;;;;;;;;4982788;28;20061;-53
2023/02/22 05:50:18;;;;;;;14.60;7.78;;;;;;;;;;4982901;28;20691;-56
2023/02/22 05:52:44;;;;;;;36.70;13.23;;;;;;;;;;4986051;28;20037;-52
2023/02/22 05:55:10;;;;;;;27.33;11.30;;;;;;;;;;4984007;28;20296;-49
2023/02/22 05:57:35;;;;;;;18.58;7.78;;;;;;;;;;4979838;28;20030;-57
2023/02/22 06:00:03;;;;;;;12.48;6.97;;;;;;;;;;4986600;28;20042;-54
2023/02/22 06:02:38;;;;;;;14.90;7.50;;;;;;;;;;4982434;28;20034;-55
2023/02/22 06:05:03;;;;;;;12.82;7.57;;;;;;;;;;4978431;28;20084;-53
2023/02/22 06:07:28;;;;;;;10.85;6.57;;;;;;;;;;4981074;28;20113;-59
2023/02/22 06:09:54;;;;;;;12.70;6.68;;;;;;;;;;4974263;28;20112;-56
2023/02/22 06:12:19;;;;;;;12.10;6.78;;;;;;;;;;4983842;28;20022;-55
2023/02/22 06:14:45;;;;;;;12.20;6.55;;;;;;;;;;4983136;28;20049;-56
2023/02/22 06:17:11;;;;;;;12.85;6.53;;;;;;;;;;4983644;28;20038;-52
2023/02/22 06:19:36;;;;;;;15.23;7.43;;;;;;;;;;4967432;28;20046;-52
2023/02/22 06:22:02;;;;;;;13.75;7.72;;;;;;;;;;4988207;28;20034;-52
2023/02/22 06:24:27;;;;;;;15.57;7.57;;;;;;;;;;4987335;28;20034;-57
2023/02/22 06:26:56;;;;;;;19.40;8.00;;;;;;;;;;4987039;28;20046;-56
2023/02/22 06:29:24;;;;;;;15.90;7.90;;;;;;;;;;4989186;28;20042;-54
2023/02/22 06:31:49;;;;;;;20.13;9.05;;;;;;;;;;4987201;28;20030;-55
2023/02/22 06:34:14;;;;;;;13.80;7.60;;;;;;;;;;4985003;28;20041;-56
2023/02/22 06:36:41;;;;;;;16.83;8.25;;;;;;;;;;4987845;28;20626;-57
2023/02/22 06:39:09;;;;;;;16.20;8.10;;;;;;;;;;4985399;28;20041;-52
2023/02/22 06:41:38;;;;;;;18.20;8.13;;;;;;;;;;4986765;28;20109;-51
2023/02/22 06:44:04;;;;;;;15.50;7.50;;;;;;;;;;4985881;28;20046;-52
2023/02/22 06:46:29;;;;;;;15.38;8.23;;;;;;;;;;4984168;28;20034;-53
2023/02/22 06:48:56;;;;;;;20.10;8.02;;;;;;;;;;4986610;28;20049;-55
2023/02/22 06:51:21;;;;;;;14.77;7.67;;;;;;;;;;4984694;28;20050;-53
2023/02/22 06:53:47;;;;;;;14.80;9.23;;;;;;;;;;4982986;28;21168;-55
2023/02/22 06:56:12;;;;;;;23.63;9.80;;;;;;;;;;4984860;28;20160;-59
2023/02/22 06:58:43;;;;;;;22.48;11.40;;;;;;;;;;4983404;28;20459;-55
2023/02/22 07:01:08;;;;;;;17.92;9.55;;;;;;;;;;4983133;28;20034;-56
2023/02/22 07:03:35;;;;;;;17.02;9.88;;;;;;;;;;4982648;28;21905;-50
2023/02/22 07:06:01;;;;;;;21.83;11.05;;;;;;;;;;4988800;28;20105;-53
2023/02/22 07:08:26;;;;;;;25.52;10.40;;;;;;;;;;4988014;28;20428;-59
2023/02/22 07:10:52;;;;;;;24.38;11.68;;;;;;;;;;4986424;28;20742;-52
2023/02/22 07:13:18;;;;;;;20.50;11.73;;;;;;;;;;4988057;28;20046;-49
2023/02/22 07:15:43;;;;;;;23.55;12.52;;;;;;;;;;4987378;28;20407;-53
2023/02/22 07:18:09;;;;;;;24.67;12.77;;;;;;;;;;4980164;28;20039;-56
2023/02/22 07:20:35;;;;;;;24.42;13.18;;;;;;;;;;4988152;28;20026;-55
2023/02/22 07:23:00;;;;;;;32.55;15.25;;;;;;;;;;4988569;28;20081;-48
2023/02/22 07:25:26;;;;;;;27.60;15.75;;;;;;;;;;4987674;28;20386;-56
2023/02/22 07:27:51;;;;;;;22.52;13.80;;;;;;;;;;4988347;28;20026;-52
2023/02/22 07:30:24;;;;;;;22.75;14.40;;;;;;;;;;4988113;28;21007;-48
2023/02/22 07:32:50;;;;;;;31.33;16.00;;;;;;;;;;4985976;28;20041;-53
2023/02/22 07:35:20;;;;;;;24.52;13.68;;;;;;;;;;4988717;28;20046;-53
2023/02/22 07:37:46;;;;;;;26.30;14.23;;;;;;;;;;4987590;28;20030;-52
2023/02/22 07:40:12;;;;;;;28.02;13.88;;;;;;;;;;4987116;28;20030;-50
2023/02/22 07:42:54;;;;;;;28.58;14.23;;;;;;;;;;4987676;28;20030;-51
2023/02/22 07:45:20;;;;;;;25.50;15.00;;;;;;;;;;4983374;28;20034;-56
2023/02/22 07:47:46;;;;;;;31.88;16.67;;;;;;;;;;4985086;28;20023;-52
2023/02/22 07:50:13;;;;;;;25.20;15.38;;;;;;;;;;4985503;28;20026;-50
2023/02/22 07:52:38;;;;;;;25.95;14.32;;;;;;;;;;4985918;28;20084;-54
2023/02/22 07:55:05;;;;;;;24.90;12.68;;;;;;;;;;4983846;28;20848;-54
2023/02/22 07:57:31;;;;;;;26.40;12.82;;;;;;;;;;4984424;28;20023;-54
2023/02/22 07:59:56;;;;;;;23.63;14.02;;;;;;;;;;4988502;28;20040;-52
2023/02/22 08:02:24;;;;;;;23.60;13.63;;;;;;;;;;4985040;28;20093;-53
2023/02/22 08:04:49;;;;;;;26.27;14.27;;;;;;;;;;4986679;28;20402;-51
2023/02/22 08:07:15;;;;;;;25.08;13.88;;;;;;;;;;4988464;28;20034;-51
2023/02/22 08:09:40;;;;;;;21.42;13.07;;;;;;;;;;4976649;28;20077;-55
2023/02/22 08:12:05;;;;;;;28.30;13.70;;;;;;;;;;4976218;28;20039;-55
2023/02/22 08:14:31;;;;;;;25.15;13.15;;;;;;;;;;4988727;28;20041;-54
2023/02/22 08:16:56;;;;;;;20.52;11.70;;;;;;;;;;4987800;28;20036;-54
2023/02/22 08:19:21;;;;;;;28.15;13.65;;;;;;;;;;4986576;28;20043;-54
2023/02/22 08:21:47;;;;;;;20.80;12.15;;;;;;;;;;4983181;28;20046;-50
2023/02/22 08:24:12;;;;;;;21.02;11.82;;;;;;;;;;4985475;28;20041;-55
2023/02/22 08:26:43;;;;;;;20.73;10.88;;;;;;;;;;4985637;28;20052;-54
2023/02/22 08:29:08;;;;;;;18.73;9.63;;;;;;;;;;4986866;28;20018;-52
2023/02/22 08:31:33;;;;;;;21.33;11.15;;;;;;;;;;4984508;28;20025;-53
2023/02/22 08:33:59;;;;;;;22.98;10.27;;;;;;;;;;4982088;28;20042;-56
2023/02/22 08:36:25;;;;;;;19.33;10.10;;;;;;;;;;4984587;28;20109;-55
2023/02/22 08:38:51;;;;;;;16.52;10.13;;;;;;;;;;4999170;28;20034;-58
2023/02/22 08:41:16;;;;;;;16.60;9.82;;;;;;;;;;4985795;28;20677;-51
2023/02/22 08:43:42;;;;;;;14.55;8.82;;;;;;;;;;4985821;28;20113;-50
2023/02/22 08:46:08;;;;;;;12.43;8.13;;;;;;;;;;4983335;28;20038;-55
2023/02/22 08:48:33;;;;;;;19.33;9.60;;;;;;;;;;4983826;28;20499;-55
2023/02/22 08:50:58;;;;;;;12.07;8.95;;;;;;;;;;4982229;28;20026;-51
2023/02/22 08:53:24;;;;;;;12.88;8.43;;;;;;;;;;4984035;28;20069;-54
2023/02/22 08:55:49;;;;;;;13.85;8.48;;;;;;;;;;4987303;28;20041;-49
2023/02/22 08:58:14;;;;;;;14.07;8.48;;;;;;;;;;4983820;28;20045;-50
2023/02/22 09:00:40;;;;;;;14.88;8.82;;;;;;;;;;4985811;28;20450;-52
2023/02/22 09:03:10;;;;;;;16.83;8.65;;;;;;;;;;4985040;28;20136;-57
2023/02/22 09:05:36;;;;;;;17.08;8.65;;;;;;;;;;4982181;28;20054;-56
2023/02/22 09:08:01;;;;;;;14.30;8.50;;;;;;;;;;4982537;28;20114;-52
2023/02/22 09:10:28;;;;;;;16.60;9.15;;;;;;;;;;4982703;28;20057;-50
2023/02/22 09:12:56;;;;;;;16.63;9.30;;;;;;;;;;4982684;28;20113;-52
2023/02/22 09:15:23;;;;;;;16.20;8.95;;;;;;;;;;4984283;28;20046;-57
2023/02/22 09:17:48;;;;;;;15.25;8.57;;;;;;;;;;4984827;28;20050;-54
2023/02/22 09:20:16;;;;;;;13.93;8.82;;;;;;;;;;4983765;28;20022;-56
2023/02/22 09:22:43;;;;;;;20.98;9.02;;;;;;;;;;4984337;28;20057;-54
2023/02/22 09:25:08;;;;;;;15.35;9.15;;;;;;;;;;4983246;28;20121;-51
2023/02/22 09:27:34;;;;;;;19.55;8.93;;;;;;;;;;4984656;28;20117;-52
2023/02/22 09:29:59;;;;;;;15.50;8.43;;;;;;;;;;4985215;28;20458;-52
2023/02/22 09:32:26;;;;;;;15.32;8.05;;;;;;;;;;4986861;28;20077;-56
2023/02/22 09:34:52;;;;;;;14.10;8.15;;;;;;;;;;4985537;28;20046;-51
2023/02/22 09:37:17;;;;;;;14.18;7.88;;;;;;;;;;4983088;28;20118;-53
2023/02/22 09:39:45;;;;;;;16.60;7.93;;;;;;;;;;4985770;28;20144;-58
2023/02/22 09:42:13;;;;;;;11.90;8.00;;;;;;;;;;4981373;28;20045;-56
2023/02/22 09:44:44;;;;;;;14.60;7.82;;;;;;;;;;4984203;28;20027;-55
2023/02/22 09:47:17;;;;;;;13.93;8.75;;;;;;;;;;4985860;28;20059;-54
2023/02/22 09:49:56;;;;;;;16.83;8.80;;;;;;;;;;4986059;28;20034;-57
2023/02/22 09:52:27;;;;;;;14.98;9.50;;;;;;;;;;4983688;28;20042;-48
2023/02/22 09:55:07;;;;;;;15.73;9.73;;;;;;;;;;4983931;28;20073;-51
2023/02/22 09:57:36;;;;;;;19.00;10.43;;;;;;;;;;4986835;28;20031;-57
2023/02/22 10:00:12;;;;;;;15.55;9.40;;;;;;;;;;4988663;28;20035;-52
2023/02/22 10:02:40;;;;;;;26.08;10.90;;;;;;;;;;4990312;28;20069;-57
2023/02/22 10:05:08;;;;;;;25.17;11.35;;;;;;;;;;4987647;28;20499;-57
2023/02/22 10:07:36;;;;;;;26.45;11.15;;;;;;;;;;4988105;28;20447;-52
2023/02/22 10:10:05;;;;;;;18.00;9.68;;;;;;;;;;4986886;28;20041;-57
2023/02/22 10:12:30;;;;;;;14.90;8.82;;;;;;;;;;4988934;28;20093;-52
2023/02/22 10:15:15;;;;;;;16.23;9.10;;;;;;;;;;4987916;28;20054;-54
2023/02/22 10:17:51;;;;;;;21.25;10.52;;;;;;;;;;4988140;28;20030;-53
2023/02/22 10:20:16;;;;;;;22.45;10.23;;;;;;;;;;4988384;28;20038;-53
2023/02/22 10:23:00;;;;;;;22.35;10.95;;;;;;;;;;4989479;28;20025;-55
2023/02/22 10:25:27;;;;;;;21.83;10.40;;;;;;;;;;4987956;28;20030;-50
2023/02/22 10:27:56;;;;;;;18.35;10.00;;;;;;;;;;4989116;28;20057;-56
2023/02/22 10:30:24;;;;;;;15.90;9.18;;;;;;;;;;4988609;28;20027;-53
2023/02/22 10:32:51;;;;;;;14.95;8.77;;;;;;;;;;4987847;28;20769;-50
2023/02/22 10:35:20;;;;;;;13.80;8.75;;;;;;;;;;4988373;28;20046;-52
2023/02/22 10:37:47;;;;;;;15.65;8.43;;;;;;;;;;4991013;28;20026;-51
2023/02/22 10:40:16;;;;;;;14.97;8.83;;;;;;;;;;4988624;28;20067;-52
2023/02/22 10:42:42;;;;;;;14.52;8.75;;;;;;;;;;4987058;28;20288;-55
2023/02/22 10:45:25;;;;;;;12.95;8.75;;;;;;;;;;4986258;28;20422;-49
2023/02/22 10:47:53;;;;;;;14.05;7.88;;;;;;;;;;4986586;28;20042;-54
2023/02/22 10:50:19;;;;;;;17.40;8.63;;;;;;;;;;4989405;28;20153;-51
2023/02/22 10:52:45;;;;;;;16.45;8.25;;;;;;;;;;4989610;28;20734;-51
2023/02/22 10:55:12;;;;;;;17.00;8.18;;;;;;;;;;4986770;28;20096;-53
2023/02/22 10:57:38;;;;;;;15.43;7.90;;;;;;;;;;4987597;28;20479;-53
2023/02/22 11:00:18;;;;;;;12.70;7.53;;;;;;;;;;4983108;28;20049;-48
2023/02/22 11:02:52;;;;;;;14.50;8.00;;;;;;;;;;4985762;28;20043;-48
2023/02/22 11:05:26;;;;;;;15.63;8.25;;;;;;;;;;4985771;28;20490;-52
2023/02/22 11:08:11;;;;;;;17.00;8.07;;;;;;;;;;4993619;28;20042;-54
2023/02/22 11:10:37;;;;;;;15.10;7.28;;;;;;;;;;4985435;28;20030;-53
2023/02/22 11:13:15;;;;;;;14.30;8.40;;;;;;;;;;4991254;28;20069;-49
2023/02/22 11:15:40;;;;;;;14.13;8.00;;;;;;;;;;4987957;28;20046;-51
2023/02/22 11:18:16;;;;;;;12.32;7.68;;;;;;;;;;4988138;28;20100;-52
2023/02/22 11:20:41;;;;;;;13.85;8.25;;;;;;;;;;4988041;28;20034;-53
2023/02/22 11:23:07;;;;;;;11.10;7.22;;;;;;;;;;4988139;28;20045;-49
2023/02/22 11:25:33;;;;;;;13.00;7.40;;;;;;;;;;4993219;28;20033;-52
2023/02/22 11:28:07;;;;;;;14.32;7.47;;;;;;;;;;4989505;28;20101;-53
2023/02/22 11:30:34;;;;;;;13.32;7.80;;;;;;;;;;4985611;28;20030;-58
2023/02/22 11:33:09;;;;;;;12.15;6.88;;;;;;;;;;4986596;28;20034;-51
2023/02/22 11:35:36;;;;;;;14.38;7.22;;;;;;;;;;4987405;28;20407;-50
2023/02/22 11:38:08;;;;;;;11.90;6.70;;;;;;;;;;4987866;28;20791;-51
2023/02/22 11:40:34;;;;;;;11.23;6.57;;;;;;;;;;4984594;28;20073;-56
2023/02/22 11:43:09;;;;;;;13.98;7.22;;;;;;;;;;4985106;28;20026;-47
2023/02/22 11:45:35;;;;;;;12.50;6.60;;;;;;;;;;4984179;28;20038;-51
2023/02/22 11:48:01;;;;;;;12.02;6.88;;;;;;;;;;4984002;28;20088;-53
2023/02/22 11:50:29;;;;;;;15.60;8.00;;;;;;;;;;4985446;28;20501;-57
2023/02/22 11:53:11;;;;;;;13.70;7.10;;;;;;;;;;4981883;28;20296;-55
2023/02/22 11:55:42;;;;;;;12.32;7.13;;;;;;;;;;4984218;28;20050;-52
2023/02/22 11:58:22;;;;;;;15.20;7.07;;;;;;;;;;4986542;28;20110;-52
2023/02/22 12:00:47;;;;;;;12.85;6.80;;;;;;;;;;4986120;28;20045;-46
2023/02/22 12:03:15;;;;;;;16.25;6.63;;;;;;;;;;4985627;28;20042;-50
2023/02/22 12:05:44;;;;;;;11.15;6.10;;;;;;;;;;4986168;28;20136;-47
2023/02/22 12:08:13;;;;;;;13.65;6.05;;;;;;;;;;4985292;28;20034;-53
2023/02/22 12:10:38;;;;;;;13.10;7.00;;;;;;;;;;4986658;28;20033;-50
2023/02/22 12:13:25;;;;;;;13.48;6.22;;;;;;;;;;4982946;28;20038;-50
2023/02/22 12:15:55;;;;;;;14.23;6.40;;;;;;;;;;4983410;28;20079;-52
2023/02/22 12:18:20;;;;;;;13.73;6.93;;;;;;;;;;4983917;28;20077;-54
2023/02/22 12:20:49;;;;;;;13.00;6.45;;;;;;;;;;4985263;28;20137;-51
2023/02/22 12:23:15;;;;;;;14.10;6.63;;;;;;;;;;4985338;28;20085;-55
2023/02/22 12:25:45;;;;;;;12.80;6.10;;;;;;;;;;4986488;28;20053;-49
2023/02/22 12:28:26;;;;;;;14.18;6.95;;;;;;;;;;4987695;28;20061;-58
2023/02/22 12:30:59;;;;;;;13.10;6.68;;;;;;;;;;4984574;28;20038;-53
2023/02/22 12:33:26;;;;;;;12.75;6.63;;;;;;;;;;4966350;28;20042;-54
2023/02/22 12:35:51;;;;;;;;;;;;;;;;;;4984521;28;20033;-53
2023/02/22 12:38:21;;;;;;;17.37;6.87;;;;;;;;;;4986014;28;19914;-56
2023/02/22 12:40:55;;;;;;;15.85;6.65;;;;;;;;;;4984183;28;20084;-52
2023/02/22 12:43:35;;;;;;;14.20;7.05;;;;;;;;;;4981889;28;20034;-52
2023/02/22 12:46:22;;;;;;;15.60;6.97;;;;;;;;;;4983922;28;20031;-54
2023/02/22 12:48:53;;;;;;;11.95;6.63;;;;;;;;;;4985594;28;20041;-49
2023/02/22 12:51:37;;;;;;;12.68;6.15;;;;;;;;;;4985168;28;20038;-50
2023/02/22 12:54:21;;;;;;;11.20;6.57;;;;;;;;;;4985270;28;20042;-54
2023/02/22 12:56:50;;;;;;;15.38;7.97;;;;;;;;;;4987550;28;20042;-54
2023/02/22 12:59:23;;;;;;;13.20;7.15;;;;;;;;;;4986212;28;20092;-51
2023/02/22 13:01:57;;;;;;;12.70;7.63;;;;;;;;;;4986147;28;20038;-55
2023/02/22 13:04:25;;;;;;;14.68;7.32;;;;;;;;;;4985776;28;20035;-52
2023/02/22 13:07:07;;;;;;;14.10;7.13;;;;;;;;;;4981979;28;20030;-53
2023/02/22 13:09:41;;;;;;;15.38;7.32;;;;;;;;;;4985952;28;20029;-54
2023/02/22 13:12:10;;;;;;;15.38;7.80;;;;;;;;;;4984736;28;20044;-55
2023/02/22 13:14:53;;;;;;;17.42;7.60;;;;;;;;;;4984714;28;20080;-54
2023/02/22 13:17:37;;;;;;;16.95;8.23;;;;;;;;;;4987503;28;20034;-54
2023/02/22 13:20:07;;;;;;;12.07;7.32;;;;;;;;;;4986088;28;20446;-56
2023/02/22 13:22:33;;;;;;;12.93;7.35;;;;;;;;;;4987342;28;20034;-51
2023/02/22 13:25:16;;;;;;;17.73;8.07;;;;;;;;;;4989633;28;20018;-52
2023/02/22 13:27:58;;;;;;;12.30;6.88;;;;;;;;;;4987995;28;20038;-51
2023/02/22 13:30:29;;;;;;;11.82;7.03;;;;;;;;;;4984420;28;20031;-51
2023/02/22 13:33:09;;;;;;;13.65;7.25;;;;;;;;;;4980453;28;20039;-57
2023/02/22 13:35:41;;;;;;;13.80;7.28;;;;;;;;;;4984143;28;20034;-55
2023/02/22 13:38:22;;;;;;;12.32;7.10;;;;;;;;;;4988234;28;20038;-53
2023/02/22 13:40:54;;;;;;;10.95;6.72;;;;;;;;;;4986298;28;20078;-52
2023/02/22 13:43:25;;;;;;;12.00;6.93;;;;;;;;;;4984232;28;20456;-56
2023/02/22 13:46:01;;;;;;;14.05;6.75;;;;;;;;;;4988042;28;20030;-51
2023/02/22 13:48:27;;;;;;;9.85;6.68;;;;;;;;;;4988449;28;20040;-52
2023/02/22 13:51:11;;;;;;;10.57;6.80;;;;;;;;;;4987642;28;20042;-55
2023/02/22 13:53:48;;;;;;;11.55;6.90;;;;;;;;;;4985338;28;20046;-53
2023/02/22 13:56:16;;;;;;;13.02;7.35;;;;;;;;;;4985890;28;20022;-53
2023/02/22 13:58:59;;;;;;;11.77;7.25;;;;;;;;;;4987115;28;20058;-48
2023/02/22 14:01:38;;;;;;;14.27;6.88;;;;;;;;;;4987060;28;20121;-54
2023/02/22 14:04:22;;;;;;;13.00;7.28;;;;;;;;;;4984051;28;20075;-58
2023/02/22 14:06:48;;;;;;;14.20;7.72;;;;;;;;;;4988182;28;20454;-56
2023/02/22 14:09:36;;;;;;;13.13;7.88;;;;;;;;;;4986380;28;20027;-51
2023/02/22 14:12:01;;;;;;;14.38;7.43;;;;;;;;;;4984768;28;20098;-52
2023/02/22 14:14:26;;;;;;;15.65;6.88;;;;;;;;;;4985327;28;20053;-55
2023/02/22 14:17:10;;;;;;;11.77;7.70;;;;;;;;;;4986298;28;20373;-56
2023/02/22 14:19:37;;;;;;;10.23;6.18;;;;;;;;;;4986595;28;20037;-55
2023/02/22 14:22:03;;;;;;;11.23;6.95;;;;;;;;;;4985815;28;20041;-52
2023/02/22 14:24:43;;;;;;;10.85;6.47;;;;;;;;;;4985421;28;20720;-56
2023/02/22 14:27:10;;;;;;;13.55;7.25;;;;;;;;;;4985835;28;20049;-53
2023/02/22 14:29:35;;;;;;;12.82;7.63;;;;;;;;;;4985477;28;20403;-52
2023/02/22 14:32:05;;;;;;;12.83;6.93;;;;;;;;;;4987594;28;20034;-54
2023/02/22 14:34:42;;;;;;;11.30;6.38;;;;;;;;;;4984919;28;20931;-53
2023/02/22 14:37:11;;;;;;;12.73;6.75;;;;;;;;;;4985990;28;20034;-49
2023/02/22 14:39:37;;;;;;;11.70;7.22;;;;;;;;;;4984468;28;20022;-54